createdAt,value
2023-05-15T00:00:06.748Z,13.43
2023-05-15T00:03:00.215Z,13.40
2023-05-15T00:05:28.328Z,13.37
2023-05-15T00:07:56.465Z,13.33
2023-05-15T00:10:24.420Z,13.29
2023-05-15T00:12:52.341Z,13.23
2023-05-15T00:15:20.183Z,13.15
2023-05-15T00:17:48.132Z,13.08
2023-05-15T00:20:16.220Z,13.03
2023-05-15T00:22:44.425Z,12.97
2023-05-15T00:25:12.365Z,12.88
2023-05-15T00:27:40.300Z,12.82
2023-05-15T00:30:08.913Z,12.77
2023-05-15T00:32:36.909Z,12.74
2023-05-15T00:35:05.402Z,12.70
2023-05-15T00:37:33.360Z,12.64
2023-05-15T00:40:01.310Z,12.59
2023-05-15T00:42:29.895Z,12.54
2023-05-15T00:45:00.740Z,12.49
2023-05-15T00:47:29.337Z,12.42
2023-05-15T00:49:58.055Z,12.35
2023-05-15T00:52:26.698Z,12.28
2023-05-15T00:54:54.772Z,12.22
2023-05-15T00:57:24.264Z,12.16
2023-05-15T00:59:52.925Z,12.13
2023-05-15T01:02:21.214Z,12.08
2023-05-15T01:04:50.002Z,12.03
2023-05-15T01:07:18.174Z,11.97
2023-05-15T01:09:49.459Z,11.92
2023-05-15T01:12:18.649Z,11.88
2023-05-15T01:14:46.612Z,11.85
2023-05-15T01:17:14.574Z,11.84
2023-05-15T01:19:43.381Z,11.85
2023-05-15T01:22:41.762Z,11.84
2023-05-15T01:25:28.229Z,11.85
2023-05-15T01:28:03.454Z,11.86
2023-05-15T01:30:36.220Z,11.86
2023-05-15T01:33:24.702Z,11.84
2023-05-15T01:36:10.967Z,11.84
2023-05-15T01:38:48.589Z,11.84
2023-05-15T01:41:39.593Z,11.85
2023-05-15T01:44:11.634Z,11.88
2023-05-15T01:46:45.432Z,11.90
2023-05-15T01:49:15.995Z,11.91
2023-05-15T01:51:44.646Z,11.90
2023-05-15T01:54:14.989Z,11.88
2023-05-15T01:56:46.952Z,11.89
2023-05-15T01:59:16.644Z,11.90
2023-05-15T02:01:46.138Z,11.89
2023-05-15T02:04:15.374Z,11.85
2023-05-15T02:06:44.424Z,11.84
2023-05-15T02:09:13.022Z,11.83
2023-05-15T02:11:42.113Z,11.81
2023-05-15T02:14:12.616Z,11.81
2023-05-15T02:16:41.203Z,11.78
2023-05-15T02:19:09.271Z,11.78
2023-05-15T02:21:37.200Z,11.76
2023-05-15T02:24:05.414Z,11.76
2023-05-15T02:26:47.753Z,11.77
2023-05-15T02:29:42.188Z,11.76
2023-05-15T02:32:14.720Z,11.76
2023-05-15T02:35:13.709Z,11.75
2023-05-15T02:37:43.084Z,11.73
2023-05-15T02:40:13.554Z,11.72
2023-05-15T02:42:43.977Z,11.73
2023-05-15T02:45:12.999Z,11.74
2023-05-15T02:47:41.138Z,11.74
2023-05-15T02:50:10.153Z,11.73
2023-05-15T02:52:38.092Z,11.74
2023-05-15T02:55:06.634Z,11.75
2023-05-15T02:57:34.497Z,11.75
2023-05-15T03:00:02.436Z,11.74
2023-05-15T03:02:30.489Z,11.75
2023-05-15T03:04:58.429Z,11.77
2023-05-15T03:07:27.029Z,11.79
2023-05-15T03:09:54.989Z,11.79
2023-05-15T03:12:22.938Z,11.77
2023-05-15T03:14:50.862Z,11.73
2023-05-15T03:17:18.908Z,11.72
2023-05-15T03:19:46.810Z,11.70
2023-05-15T03:22:14.870Z,11.69
2023-05-15T03:24:43.089Z,11.72
2023-05-15T03:27:11.031Z,11.73
2023-05-15T03:29:38.936Z,11.72
2023-05-15T03:32:06.920Z,11.71
2023-05-15T03:34:34.896Z,11.70
2023-05-15T03:37:02.887Z,11.70
2023-05-15T03:39:30.815Z,11.72
2023-05-15T03:41:58.769Z,11.72
2023-05-15T03:44:26.698Z,11.72
2023-05-15T03:46:54.666Z,11.73
2023-05-15T03:49:22.627Z,11.72
2023-05-15T03:51:50.726Z,11.70
2023-05-15T03:54:19.256Z,11.72
2023-05-15T03:56:47.241Z,11.73
2023-05-15T03:59:15.323Z,11.77
2023-05-15T04:01:59.440Z,11.78
2023-05-15T04:04:31.522Z,11.79
2023-05-15T04:07:00.496Z,11.80
2023-05-15T04:09:28.453Z,11.79
2023-05-15T04:11:56.434Z,11.81
2023-05-15T04:14:24.410Z,11.83
2023-05-15T04:16:52.532Z,11.84
2023-05-15T04:19:20.842Z,11.82
2023-05-15T04:21:48.847Z,11.83
2023-05-15T04:24:16.755Z,11.84
2023-05-15T04:26:44.707Z,11.83
2023-05-15T04:29:12.654Z,11.84
2023-05-15T04:31:40.593Z,11.85
2023-05-15T04:34:08.524Z,11.86
2023-05-15T04:36:36.584Z,11.88
2023-05-15T04:39:04.509Z,11.91
2023-05-15T04:41:33.283Z,11.92
2023-05-15T04:44:01.219Z,12.07
2023-05-15T04:46:29.480Z,12.39
2023-05-15T04:48:57.485Z,12.51
2023-05-15T04:51:25.426Z,12.52
2023-05-15T04:53:53.267Z,12.51
2023-05-15T04:56:21.742Z,12.53
2023-05-15T04:58:49.756Z,12.49
2023-05-15T05:01:17.650Z,12.43
2023-05-15T05:03:45.636Z,12.40
2023-05-15T05:06:13.611Z,12.51
2023-05-15T05:08:41.541Z,12.53
2023-05-15T05:11:09.573Z,12.53
2023-05-15T05:13:37.410Z,12.67
2023-05-15T05:16:05.846Z,12.75
2023-05-15T05:18:33.916Z,12.82
2023-05-15T05:21:05.156Z,12.84
2023-05-15T05:23:33.097Z,12.76
2023-05-15T05:26:01.084Z,12.66
2023-05-15T05:28:29.002Z,12.65
2023-05-15T05:30:57.072Z,12.68
2023-05-15T05:33:25.091Z,12.77
2023-05-15T05:35:53.112Z,12.72
2023-05-15T05:38:21.095Z,12.64
2023-05-15T05:40:48.988Z,12.55
2023-05-15T05:43:16.920Z,12.49
2023-05-15T05:45:44.890Z,12.43
2023-05-15T05:48:13.545Z,12.48
2023-05-15T05:50:42.436Z,12.54
2023-05-15T05:53:10.720Z,12.49
2023-05-15T05:55:38.750Z,12.51
2023-05-15T05:58:14.709Z,12.55
2023-05-15T06:00:52.572Z,12.58
2023-05-15T06:03:21.335Z,12.55
2023-05-15T06:05:49.569Z,12.52
2023-05-15T06:08:17.645Z,12.47
2023-05-15T06:10:46.085Z,12.49
2023-05-15T06:13:15.222Z,12.59
2023-05-15T06:15:43.925Z,12.70
2023-05-15T06:18:11.970Z,12.74
2023-05-15T06:20:40.108Z,12.74
2023-05-15T06:23:08.140Z,12.68
2023-05-15T06:25:36.547Z,12.69
2023-05-15T06:28:04.811Z,12.76
2023-05-15T06:30:33.018Z,12.81
2023-05-15T06:33:01.090Z,12.78
2023-05-15T06:35:29.185Z,12.80
2023-05-15T06:37:58.546Z,12.89
2023-05-15T06:40:27.098Z,13.03
2023-05-15T06:42:55.506Z,13.03
2023-05-15T06:45:23.516Z,12.89
2023-05-15T06:47:51.528Z,12.77
2023-05-15T06:50:19.799Z,12.66
2023-05-15T06:52:47.969Z,12.58
2023-05-15T06:55:15.914Z,12.55
2023-05-15T06:57:43.900Z,12.50
2023-05-15T07:00:12.575Z,12.51
2023-05-15T07:02:40.526Z,12.49
2023-05-15T07:05:09.012Z,12.47
2023-05-15T07:07:37.092Z,12.43
2023-05-15T07:10:05.924Z,12.45
2023-05-15T07:12:34.298Z,12.52
2023-05-15T07:15:02.208Z,12.58
2023-05-15T07:17:32.178Z,12.63
2023-05-15T07:20:00.249Z,12.65
2023-05-15T07:22:29.119Z,12.63
2023-05-15T07:24:57.104Z,12.65
2023-05-15T07:27:25.013Z,12.66
2023-05-15T07:29:53.972Z,12.64
2023-05-15T07:32:21.869Z,12.64
2023-05-15T07:34:49.827Z,12.65
2023-05-15T07:37:17.748Z,12.69
2023-05-15T07:39:46.693Z,12.71
2023-05-15T07:42:14.731Z,12.74
2023-05-15T07:44:44.343Z,12.81
2023-05-15T07:47:13.435Z,12.83
2023-05-15T07:49:41.366Z,12.87
2023-05-15T07:52:09.237Z,12.83
2023-05-15T07:54:37.105Z,12.84
2023-05-15T07:57:05.587Z,12.87
2023-05-15T07:59:33.815Z,12.87
2023-05-15T08:02:02.040Z,12.87
2023-05-15T08:04:30.024Z,12.91
2023-05-15T08:06:58.140Z,12.92
2023-05-15T08:09:26.041Z,12.97
2023-05-15T08:11:57.487Z,13.07
2023-05-15T08:14:25.486Z,13.12
2023-05-15T08:16:53.484Z,13.17
2023-05-15T08:19:22.207Z,13.23
2023-05-15T08:21:51.248Z,13.29
2023-05-15T08:24:19.110Z,13.34
2023-05-15T08:26:47.043Z,13.37
2023-05-15T08:29:14.962Z,13.37
2023-05-15T08:31:42.985Z,13.38
2023-05-15T08:34:11.359Z,13.38
2023-05-15T08:36:39.665Z,13.39
2023-05-15T08:39:09.318Z,13.45
2023-05-15T08:42:19.250Z,13.52
2023-05-15T08:44:47.895Z,13.66
2023-05-15T08:47:16.138Z,13.77
2023-05-15T08:50:06.859Z,13.87
2023-05-15T08:52:35.011Z,13.96
2023-05-15T08:55:03.917Z,14.05
2023-05-15T08:57:33.438Z,14.18
2023-05-15T09:00:03.168Z,14.31
2023-05-15T09:02:31.438Z,14.53
2023-05-15T09:04:59.422Z,14.87
2023-05-15T09:07:27.482Z,15.04
2023-05-15T09:09:57.080Z,15.05
2023-05-15T09:12:26.252Z,15.08
2023-05-15T09:15:18.185Z,15.10
2023-05-15T09:17:46.280Z,15.20
2023-05-15T09:20:35.700Z,15.28
2023-05-15T09:23:06.180Z,15.45
2023-05-15T09:25:40.528Z,15.69
2023-05-15T09:28:10.884Z,15.92
2023-05-15T09:30:41.747Z,16.05
2023-05-15T09:33:10.045Z,16.12
2023-05-15T09:35:39.574Z,16.16
2023-05-15T09:38:12.746Z,16.16
2023-05-15T09:40:41.138Z,16.19
2023-05-15T09:43:12.218Z,16.20
2023-05-15T09:45:40.282Z,16.29
2023-05-15T09:48:08.681Z,16.45
2023-05-15T09:50:41.483Z,16.65
2023-05-15T09:53:12.951Z,16.85
2023-05-15T09:55:42.580Z,17.07
2023-05-15T09:58:16.389Z,17.36
2023-05-15T10:00:47.579Z,17.63
2023-05-15T10:03:22.497Z,17.79
2023-05-15T10:05:50.903Z,17.81
2023-05-15T10:08:27.515Z,17.70
2023-05-15T10:10:59.774Z,17.54
2023-05-15T10:13:30.915Z,17.47
2023-05-15T10:15:59.208Z,17.42
2023-05-15T10:18:30.429Z,17.46
2023-05-15T10:21:01.354Z,17.62
2023-05-15T10:23:31.814Z,17.83
2023-05-15T10:26:07.753Z,18.04
2023-05-15T10:28:36.576Z,18.33
2023-05-15T10:31:05.032Z,18.55
2023-05-15T10:33:33.970Z,18.71
2023-05-15T10:36:03.580Z,18.71
2023-05-15T10:38:33.065Z,18.77
2023-05-15T10:41:15.653Z,18.79
2023-05-15T10:43:44.725Z,18.80
2023-05-15T10:46:13.874Z,18.92
2023-05-15T10:48:42.555Z,19.00
2023-05-15T10:51:28.074Z,18.89
2023-05-15T10:53:56.961Z,18.72
2023-05-15T10:56:32.518Z,18.54
2023-05-15T10:59:08.732Z,18.42
2023-05-15T11:01:39.086Z,18.54
2023-05-15T11:04:11.454Z,18.65
2023-05-15T11:06:50.562Z,18.67
2023-05-15T11:09:21.587Z,18.63
2023-05-15T11:11:52.869Z,18.59
2023-05-15T11:14:24.572Z,18.54
2023-05-15T11:16:52.555Z,18.50
2023-05-15T11:19:29.553Z,18.47
2023-05-15T11:22:03.836Z,18.46
2023-05-15T11:24:46.814Z,18.40
2023-05-15T11:27:20.545Z,18.33
2023-05-15T11:30:26.648Z,18.15
2023-05-15T11:32:58.524Z,18.05
2023-05-15T11:35:32.584Z,17.99
2023-05-15T11:38:24.964Z,17.99
2023-05-15T11:40:58.594Z,17.99
2023-05-15T11:43:28.475Z,17.90
2023-05-15T11:46:17.086Z,17.80
2023-05-15T11:48:48.002Z,17.74
2023-05-15T11:51:25.083Z,17.72
2023-05-15T11:53:56.747Z,17.69
2023-05-15T11:56:28.376Z,17.66
2023-05-15T11:59:04.014Z,17.62
2023-05-15T12:01:43.006Z,17.51
2023-05-15T12:04:18.640Z,17.38
2023-05-15T12:06:49.809Z,17.24
2023-05-15T12:09:19.551Z,17.11
2023-05-15T12:11:50.761Z,17.03
2023-05-15T12:14:26.807Z,16.93
2023-05-15T12:16:57.867Z,16.80
2023-05-15T12:19:29.179Z,16.72
2023-05-15T12:21:57.192Z,16.66
2023-05-15T12:24:26.629Z,16.57
2023-05-15T12:26:57.302Z,16.48
2023-05-15T12:29:26.895Z,16.43
2023-05-15T12:31:55.258Z,16.39
2023-05-15T12:34:24.749Z,16.31
2023-05-15T12:36:52.789Z,16.20
2023-05-15T12:39:20.805Z,16.01
2023-05-15T12:41:50.064Z,15.94
2023-05-15T12:44:18.641Z,15.94
2023-05-15T12:46:47.820Z,15.86
2023-05-15T12:49:21.768Z,15.71
2023-05-15T12:51:50.133Z,15.68
2023-05-15T12:54:19.928Z,15.67
2023-05-15T12:56:48.590Z,15.62
2023-05-15T12:59:16.583Z,15.73
2023-05-15T13:01:45.110Z,16.00
2023-05-15T13:04:13.143Z,16.23
2023-05-15T13:06:46.932Z,16.39
2023-05-15T13:09:22.720Z,16.50
2023-05-15T13:11:50.927Z,16.59
2023-05-15T13:14:19.549Z,16.68
2023-05-15T13:16:47.556Z,16.78
2023-05-15T13:19:16.112Z,16.84
2023-05-15T13:21:45.632Z,16.89
2023-05-15T13:24:13.642Z,16.90
2023-05-15T13:26:41.991Z,16.85
2023-05-15T13:29:10.145Z,16.79
2023-05-15T13:31:38.176Z,16.78
2023-05-15T13:34:06.540Z,16.79
2023-05-15T13:36:34.504Z,16.81
2023-05-15T13:39:03.747Z,16.80
2023-05-15T13:41:31.709Z,16.80
2023-05-15T13:44:00.256Z,16.94
2023-05-15T13:46:28.357Z,17.14
2023-05-15T13:48:56.288Z,17.26
2023-05-15T13:51:24.445Z,17.37
2023-05-15T13:53:52.408Z,17.48
2023-05-15T13:56:20.831Z,17.41
2023-05-15T13:58:48.735Z,17.31
2023-05-15T14:01:16.903Z,17.32
2023-05-15T14:03:45.573Z,17.27
2023-05-15T14:06:13.592Z,17.38
2023-05-15T14:08:41.500Z,17.55
2023-05-15T14:11:09.469Z,17.77
2023-05-15T14:13:37.437Z,18.11
2023-05-15T14:16:05.837Z,18.39
2023-05-15T14:18:34.000Z,18.56
2023-05-15T14:21:02.308Z,18.82
2023-05-15T14:23:30.327Z,18.91
2023-05-15T14:25:58.212Z,18.78
2023-05-15T14:28:26.135Z,18.76
2023-05-15T14:30:54.082Z,18.73
2023-05-15T14:33:22.050Z,18.61
2023-05-15T14:35:50.059Z,18.51
2023-05-15T14:38:18.001Z,18.46
2023-05-15T14:40:46.020Z,18.37
2023-05-15T14:43:13.995Z,18.24
2023-05-15T14:45:41.868Z,18.15
2023-05-15T14:48:11.719Z,18.19
2023-05-15T14:50:39.756Z,18.24
2023-05-15T14:53:07.740Z,18.27
2023-05-15T14:55:35.647Z,18.28
2023-05-15T14:58:03.564Z,18.30
2023-05-15T15:00:32.302Z,18.32
2023-05-15T15:03:02.672Z,18.25
2023-05-15T15:05:30.724Z,18.17
2023-05-15T15:08:01.670Z,18.13
2023-05-15T15:10:30.365Z,18.03
2023-05-15T15:12:58.842Z,17.92
2023-05-15T15:15:27.290Z,17.91
2023-05-15T15:17:57.366Z,17.84
2023-05-15T15:20:26.997Z,17.85
2023-05-15T15:22:56.232Z,17.93
2023-05-15T15:25:24.408Z,17.97
2023-05-15T15:27:52.614Z,17.99
2023-05-15T15:30:20.706Z,18.01
2023-05-15T15:32:48.825Z,18.01
2023-05-15T15:35:16.739Z,18.07
2023-05-15T15:37:46.199Z,18.17
2023-05-15T15:40:15.103Z,18.28
2023-05-15T15:42:43.029Z,18.39
2023-05-15T15:45:11.022Z,18.51
2023-05-15T15:47:39.054Z,18.66
2023-05-15T15:50:07.637Z,18.72
2023-05-15T15:52:35.625Z,18.78
2023-05-15T15:55:03.730Z,18.84
2023-05-15T15:57:32.755Z,18.83
2023-05-15T16:00:01.563Z,18.74
2023-05-15T16:02:29.593Z,18.71
2023-05-15T16:04:57.549Z,18.74
2023-05-15T16:07:25.458Z,18.81
2023-05-15T16:10:00.335Z,18.85
2023-05-15T16:12:39.300Z,18.85
2023-05-15T16:15:21.653Z,18.86
2023-05-15T16:17:53.514Z,18.72
2023-05-15T16:20:23.754Z,18.61
2023-05-15T16:22:51.937Z,18.64
2023-05-15T16:25:20.003Z,18.68
2023-05-15T16:27:47.971Z,18.69
2023-05-15T16:30:16.009Z,18.67
2023-05-15T16:32:44.035Z,18.66
2023-05-15T16:35:12.107Z,18.65
2023-05-15T16:37:40.095Z,18.67
2023-05-15T16:40:08.676Z,18.73
2023-05-15T16:42:38.069Z,18.78
2023-05-15T16:45:06.876Z,18.83
2023-05-15T16:47:37.682Z,18.91
2023-05-15T16:50:09.250Z,18.96
2023-05-15T16:52:39.049Z,18.94
2023-05-15T16:55:07.547Z,18.83
2023-05-15T16:57:35.624Z,18.64
2023-05-15T17:00:04.379Z,18.47
2023-05-15T17:02:32.447Z,18.32
2023-05-15T17:05:00.675Z,18.19
2023-05-15T17:07:28.706Z,18.08
2023-05-15T17:09:56.668Z,18.00
2023-05-15T17:12:24.652Z,18.00
2023-05-15T17:14:52.685Z,18.05
2023-05-15T17:17:20.892Z,18.09
2023-05-15T17:19:49.259Z,18.11
2023-05-15T17:22:17.155Z,18.08
2023-05-15T17:24:51.319Z,18.01
2023-05-15T17:27:20.557Z,17.93
2023-05-15T17:29:48.789Z,17.81
2023-05-15T17:32:17.524Z,17.67
2023-05-15T17:34:46.391Z,17.57
2023-05-15T17:37:14.908Z,17.50
2023-05-15T17:39:43.145Z,17.43
2023-05-15T17:42:11.094Z,17.35
2023-05-15T17:44:39.283Z,17.28
2023-05-15T17:47:08.610Z,17.21
2023-05-15T17:49:37.578Z,17.16
2023-05-15T17:52:06.637Z,17.10
2023-05-15T17:54:34.733Z,17.04
2023-05-15T17:57:03.150Z,16.97
2023-05-15T17:59:31.284Z,16.88
2023-05-15T18:01:59.371Z,16.76
2023-05-15T18:04:27.580Z,16.65
2023-05-15T18:06:55.673Z,16.53
2023-05-15T18:09:24.865Z,16.39
2023-05-15T18:11:52.961Z,16.24
2023-05-15T18:14:20.926Z,16.11
2023-05-15T18:16:48.938Z,16.02
2023-05-15T18:19:17.082Z,15.87
2023-05-15T18:21:45.243Z,15.74
2023-05-15T18:24:13.312Z,15.62
2023-05-15T18:26:41.379Z,15.51
2023-05-15T18:29:09.316Z,15.41
2023-05-15T18:31:37.374Z,15.30
2023-05-15T18:34:05.293Z,15.18
2023-05-15T18:36:33.454Z,15.07
2023-05-15T18:39:02.516Z,14.96
2023-05-15T18:41:30.734Z,14.85
2023-05-15T18:43:58.708Z,14.74
2023-05-15T18:46:28.409Z,14.65
2023-05-15T18:48:56.746Z,14.56
2023-05-15T18:51:24.709Z,14.47
2023-05-15T18:53:52.737Z,14.37
2023-05-15T18:56:21.659Z,14.27
2023-05-15T18:58:49.834Z,14.14
2023-05-15T19:01:17.908Z,14.02
2023-05-15T19:03:46.075Z,13.90
2023-05-15T19:06:19.700Z,13.81
2023-05-15T19:08:48.062Z,13.73
2023-05-15T19:11:16.991Z,13.63
2023-05-15T19:13:45.092Z,13.53
2023-05-15T19:16:13.153Z,13.45
2023-05-15T19:18:41.264Z,13.37
2023-05-15T19:21:09.225Z,13.29
2023-05-15T19:23:37.308Z,13.23
2023-05-15T19:26:05.400Z,13.18
2023-05-15T19:28:33.623Z,13.13
2023-05-15T19:31:01.627Z,13.09
2023-05-15T19:33:29.593Z,13.06
2023-05-15T19:35:57.552Z,13.04
2023-05-15T19:38:25.743Z,13.03
2023-05-15T19:40:53.783Z,13.03
2023-05-15T19:43:22.031Z,13.04
2023-05-15T19:45:50.020Z,13.07
2023-05-15T19:48:17.983Z,13.13
2023-05-15T19:50:46.270Z,13.29
2023-05-15T19:53:14.275Z,13.34
2023-05-15T19:55:42.201Z,13.39
2023-05-15T19:58:10.398Z,13.54
2023-05-15T20:00:38.512Z,13.65
2023-05-15T20:03:06.552Z,13.65
2023-05-15T20:05:34.515Z,13.61
2023-05-15T20:08:02.868Z,13.58
2023-05-15T20:10:30.968Z,13.56
2023-05-15T20:12:59.399Z,13.53
2023-05-15T20:15:29.443Z,13.49
2023-05-15T20:17:58.305Z,13.46
2023-05-15T20:20:27.106Z,13.43
2023-05-15T20:22:55.255Z,13.40
2023-05-15T20:25:24.353Z,13.39
2023-05-15T20:27:56.426Z,13.39
2023-05-15T20:30:24.809Z,13.40
2023-05-15T20:32:53.007Z,13.39
2023-05-15T20:35:24.009Z,13.39
2023-05-15T20:37:53.110Z,13.38
2023-05-15T20:40:22.993Z,13.38
2023-05-15T20:42:51.976Z,13.36
2023-05-15T20:45:20.252Z,13.32
2023-05-15T20:47:48.943Z,13.30
2023-05-15T20:50:18.003Z,13.27
2023-05-15T20:52:46.160Z,13.25
2023-05-15T20:55:16.335Z,13.22
2023-05-15T20:57:44.669Z,13.18
2023-05-15T21:00:15.406Z,13.14
2023-05-15T21:02:45.482Z,13.11
2023-05-15T21:05:14.001Z,13.06
2023-05-15T21:07:42.116Z,13.00
2023-05-15T21:10:10.854Z,12.95
2023-05-15T21:12:39.861Z,12.89
2023-05-15T21:15:08.459Z,12.85
2023-05-15T21:17:36.519Z,12.80
2023-05-15T21:20:05.004Z,12.75
2023-05-15T21:22:33.257Z,12.70
2023-05-15T21:25:01.321Z,12.66
2023-05-15T21:27:29.412Z,12.61
2023-05-15T21:29:57.464Z,12.57
2023-05-15T21:32:25.613Z,12.53
2023-05-15T21:34:53.499Z,12.49
2023-05-15T21:37:21.562Z,12.45
2023-05-15T21:39:49.429Z,12.41
2023-05-15T21:42:17.293Z,12.37
2023-05-15T21:44:49.289Z,12.32
2023-05-15T21:47:17.232Z,12.27
2023-05-15T21:49:45.296Z,12.24
2023-05-15T21:52:13.189Z,12.20
2023-05-15T21:54:41.115Z,12.18
2023-05-15T21:57:09.813Z,12.14
2023-05-15T21:59:37.797Z,12.10
2023-05-15T22:02:07.441Z,12.08
2023-05-15T22:04:35.686Z,12.05
2023-05-15T22:07:03.740Z,12.02
2023-05-15T22:09:31.750Z,12.00
2023-05-15T22:11:59.785Z,11.98
2023-05-15T22:14:27.721Z,11.95
2023-05-15T22:16:55.909Z,11.93
2023-05-15T22:19:32.702Z,11.91
2023-05-15T22:22:03.558Z,11.89
2023-05-15T22:24:31.504Z,11.87
2023-05-15T22:27:00.706Z,11.85
2023-05-15T22:29:28.597Z,11.82
2023-05-15T22:31:56.548Z,11.79
2023-05-15T22:34:28.760Z,11.76
2023-05-15T22:36:56.787Z,11.73
2023-05-15T22:39:24.640Z,11.69
2023-05-15T22:41:52.614Z,11.66
2023-05-15T22:44:20.447Z,11.64
2023-05-15T22:46:48.334Z,11.61
2023-05-15T22:49:19.309Z,11.59
2023-05-15T22:51:47.427Z,11.55
2023-05-15T22:54:22.261Z,11.52
2023-05-15T22:56:52.360Z,11.50
2023-05-15T22:59:21.002Z,11.49
2023-05-15T23:01:49.830Z,11.47
2023-05-15T23:04:18.246Z,11.46
2023-05-15T23:06:46.639Z,11.46
2023-05-15T23:09:14.609Z,11.45
2023-05-15T23:11:42.538Z,11.44
2023-05-15T23:14:10.384Z,11.44
2023-05-15T23:16:38.415Z,11.46
2023-05-15T23:19:06.460Z,11.47
2023-05-15T23:21:34.468Z,11.49
2023-05-15T23:24:02.477Z,11.51
2023-05-15T23:26:30.388Z,11.53
2023-05-15T23:28:58.324Z,11.56
2023-05-15T23:31:26.340Z,11.58
2023-05-15T23:33:54.391Z,11.59
2023-05-15T23:36:22.552Z,11.60
2023-05-15T23:38:50.785Z,11.61
2023-05-15T23:41:18.801Z,11.63
2023-05-15T23:43:46.814Z,11.66
2023-05-15T23:46:14.993Z,11.68
2023-05-15T23:48:43.139Z,11.72
2023-05-15T23:51:11.318Z,11.76
2023-05-15T23:53:39.221Z,11.80
2023-05-15T23:56:08.385Z,11.83
2023-05-15T23:58:36.330Z,11.87
